Flint, Michigan
Current Conditions -  °F | °C
As of 10:11 AM on Monday 24 Nov 2014 (Local Time) from KFNT Reporting Station
Overcast Overcast  
Wind Chill: 14°   Ceiling: 3300
Heat Index: 14°   Visibility: 10mi
Dew Point: 11°   Wind: 12mph
Humidity: 83%   Direction: 200°SSW
Pressure: 29.08"   Gusts: NA
Location:  43.01°N, 83.68°W
Report Text: KFNT 241511Z 20010KT 10SM SCT017 OVC033 14/11 A2908 RMK AO2 T01390111
Loading
Personal Weather Stations






























Interactive Weather Map New forecast layout! Learn more

10-Day Weather Forecast

Advertisements
Track Severe Weather on mobile